ボードー の空港の天気 - METARとTAF

Bodo Vi ( ENBO / BOO ) - ノルウェー ヌールラン県ボードー
飛行場実況気象(Metar)
観測時間01/23 08:50 CET (01/23 07:50 UTC)
風向・風速東 10m/s
視程10km以上
天気現象
なし
気温-5℃
湿度58%
気圧1008hPa
METARENBO 230750Z 08020KT CAVOK M05/M12 Q1008 NOSIG
過去の天気等 Google飛行場航空写真 Wunderground天気予報

過去48時間のMETAR

飛行場予報(TAF)
発表時間: -
23日22時 CET ~ 24日7時 CET に一時的に
風向・風速東 13m/s 瞬間風速 18m/s
TAF ENBO 2306/2406 09020KT CAVOK
TEMPO 2321/2406 10025G35KT